Aérodrome :
LOGIN :

S'inscrire | Disclaimer

   EN    FR    IT 

 










Légende :    VFR   VFR Marginal   IFR   IFR Intensif   IFR Très Intensif
Visi : 
Plafond : 
>= 8 km
>= 3000ft
5 à 8 km
1000 à 3000 ft
1500m à 5 km
500 à 1000 ft
800 à 1500m
200 à 500 ft
< 800m
< 200 ft
Symboles :   Orages  Brouillard  Fortes neiges  Fortes précipitations  Vent > 20 kt
SIGMETs :   Divers  Orages  Givrage  Turbulence  Onde Orograph.  Cendres Volcan.






- Altitude de l'aérodrome : 1187 ft


LIBV - Gioia del Colle Bari

DERNIER METAR :
  • 151155Z 16024KT 9999 SCT015 16/11 Q1010 RMK BKN BKN200 VIS MIN 9999 WIND THR32 17023KT WIND THR1417023KT BLU

METARs EXPIRÉS :
  • 151055Z 16026KT 9999 BKN015 16/11 Q1010 RMK BKN SCT200 VIS MIN 9999 WIND THR32 16023KT WIND THR14 16024KT WHT
  • 150955Z 17020KT 8000 BKN012 15/12 Q1010 RMK BKN VIS MIN 8000 WIND THR32 17018KT WIND THR14 17019KT GRN

TAF TAF LIBV
Valide du 15 à 12h jusqu'au 15 à 21h UTC


151100Z 1512/1521 18020G32KT 8000 SCT015
BECMG 1516/1518 3000 BR SCT004 SCT008



MET'MAP, la Météo Aéronautique d'un coup d'oeil ! - Copyright ORBIFLY Décembre 2007 - Disclaimer

ORBIFLY MET'MAP TEAM :

Programmation & Développement : Alexandra Zaïnal
Conception & Développement : Baudouin d'Aumeries
Co-Programmation & Développement : Marc-Olivier Méhu
Soutien technique & logistique : Manuel Goepfert

Contact : metmap@orbifly.com




SOURCES & CREDITS :

   NOAA